Terminal Aerodrome Forecast
Issued by NWS Raleigh/Durham, NC

Home | Current Version | Previous Version | Text Only | Print | Product List | Glossary On
Versions: 1 2 3 4 5 6 7 8 9 10 11 12 13 14 15
000
FTUS42 KRAH 221234 AAA
TAFFAY
TAF AMD
KFAY 221234Z 2213/2312 VRB03KT P6SM SCT015 OVC035
      TEMPO 2213/2214 3SM SHRA OVC004
     FM221500 33011G19KT P6SM SCT040 SCT200
     FM222300 02006KT P6SM BKN250=

USA.gov is the U.S. government's official web portal to all federal, state and local government web resources and services.